Flight Track Log - Related Links

Times and Time Zones

All times are in EDT time to prevent confusion due to time zone crossing. See the CSN6373 flight status page for this flight to view local times or setup timezone preferences in your user account.


Time Position Orientation Groundspeed Altitude Reporting Facility
EDT Latitude Longitude Course Direction KTS MPH feet Rate Location/Type
Sun 10:18:00 AM 43.7989 125.1629 193° South  Level Estimated
Sun 10:19:00 AM 43.6912 125.1286 193° South  Level Estimated
Sun 10:20:00 AM 43.5835 125.0943 193° South  Level Estimated
Sun 10:21:00 AM 43.4758 125.0602 193° South  Level Estimated
Sun 10:22:00 AM 43.3681 125.0262 193° South  Level Estimated
Sun 10:23:00 AM 43.2603 124.9923 193° South  Level Estimated
Sun 10:24:00 AM 43.1526 124.9586 193° South  Level Estimated
Sun 10:25:00 AM 43.0448 124.9249 193° South  Level Estimated
Sun 10:26:00 AM 42.9371 124.8914 193° South  Level Estimated
Sun 10:27:00 AM 42.8293 124.8580 193° South  Level Estimated
Sun 10:28:00 AM 42.7215 124.8247 193° South  Level Estimated
Sun 10:29:00 AM 42.6137 124.7915 193° South  Level Estimated
Sun 10:30:00 AM 42.5059 124.7585 193° South  Level Estimated
Sun 10:31:00 AM 42.3981 124.7255 193° South  Level Estimated
Sun 10:32:00 AM 42.2903 124.6927 193° South  Level Estimated
Sun 10:33:00 AM 42.1825 124.6600 193° South  Level Estimated
Sun 10:34:00 AM 42.0746 124.6274 193° South  Level Estimated
Sun 10:35:00 AM 41.9668 124.5949 193° South  Level Estimated
Sun 10:36:00 AM 41.8589 124.5625 193° South  Level Estimated
Sun 10:37:00 AM 41.7511 124.5302 193° South  Level Estimated
Sun 10:38:00 AM 41.6432 124.4980 193° South  Level Estimated
Sun 10:39:00 AM 41.5353 124.4660 193° South  Level Estimated
Sun 10:40:00 AM 41.4274 124.4340 193° South  Level Estimated
Sun 10:41:00 AM 41.3195 124.4022 192° South  Level Estimated
Sun 10:42:00 AM 41.2116 124.3705 192° South  Level Estimated
Sun 10:43:00 AM 41.1037 124.3388 192° South  Level Estimated
Sun 10:44:00 AM 40.9958 124.3073 192° South  Level Estimated
Sun 10:45:00 AM 40.8878 124.2758 192° South  Level Estimated
Sun 10:46:00 AM 40.7799 124.2445 192° South  Level Estimated
Sun 10:47:00 AM 40.6720 124.2133 192° South  Level Estimated
Sun 10:48:00 AM 40.5640 124.1822 192° South  Level Estimated
Sun 10:49:00 AM 40.4560 124.1511 192° South  Level Estimated
Sun 10:50:00 AM 40.3480 124.1202 192° South  Level Estimated
Sun 10:51:00 AM 40.2401 124.0894 192° South  Level Estimated
Sun 10:52:00 AM 40.1321 124.0586 192° South  Level Estimated
Sun 10:53:00 AM 40.0241 124.0280 192° South  Level Estimated
Sun 10:54:00 AM 39.9160 123.9975 192° South  Level Estimated
Sun 10:55:00 AM 39.8080 123.9670 192° South  Level Estimated
Sun 10:56:00 AM 39.7000 123.9367 192° South  Level Estimated
Sun 10:57:00 AM 39.5920 123.9064 192° South  Level Estimated
Sun 10:58:00 AM 39.4839 123.8763 192° South  Level Estimated
Sun 10:59:00 AM 39.3759 123.8462 192° South  Level Estimated
Sun 11:00:00 AM 39.2678 123.8163 192° South  Level Estimated
Sun 11:01:00 AM 39.1598 123.7864 192° South  Level Estimated
Sun 11:02:00 AM 39.0517 123.7566 192° South  Level Estimated
Sun 11:03:00 AM 38.9436 123.7269 192° South  Level Estimated
Sun 11:04:00 AM 38.8355 123.6973 192° South  Level Estimated
Sun 11:05:00 AM 38.7274 123.6678 192° South  Level Estimated
Sun 11:06:00 AM 38.6193 123.6384 192° South  Level Estimated
Sun 11:07:00 AM 38.5112 123.6090 192° South  Level Estimated
Sun 11:08:00 AM 38.4031 123.5798 192° South  Level Estimated
Sun 11:09:00 AM 38.2950 123.5506 192° South  Level Estimated
Sun 11:10:00 AM 38.1869 123.5216 192° South  Level Estimated
Sun 11:11:00 AM 38.0787 123.4926 192° South  Level Estimated
Sun 11:12:00 AM 37.9706 123.4637 192° South  Level Estimated
Sun 11:13:00 AM 37.8624 123.4348 192° South  Level Estimated
Sun 11:14:00 AM 37.7543 123.4061 192° South  Level Estimated
Sun 11:15:00 AM 37.6461 123.3775 192° South  Level Estimated
Sun 11:16:00 AM 37.5379 123.3489 192° South  Level Estimated
Sun 11:17:00 AM 37.4297 123.3204 192° South  Level Estimated
Sun 11:18:00 AM 37.3215 123.2920 192° South  Level Estimated
Sun 11:19:00 AM 37.2134 123.2637 192° South  Level Estimated
Sun 11:20:00 AM 37.1052 123.2355 192° South  Level Estimated
Sun 11:21:00 AM 36.9969 123.2073 192° South  Level Estimated
Sun 11:22:00 AM 36.8887 123.1792 192° South  Level Estimated
Sun 11:23:00 AM 36.7805 123.1512 192° South  Level Estimated
Sun 11:24:00 AM 36.6723 123.1233 192° South  Level Estimated
Sun 11:25:00 AM 36.5641 123.0955 192° South  Level Estimated
Sun 11:26:00 AM 36.4558 123.0677 192° South  Level Estimated
Sun 11:27:00 AM 36.3476 123.0400 192° South  Level Estimated
Sun 11:28:00 AM 36.2393 123.0124 192° South  Level Estimated
Sun 11:29:00 AM 36.1311 122.9849 192° South  Level Estimated
Sun 11:30:00 AM 36.0228 122.9574 192° South  Level Estimated
Sun 11:31:00 AM 35.9145 122.9300 192° South  Level Estimated
Sun 11:32:00 AM 35.8063 122.9027 192° South  Level Estimated
Sun 11:33:00 AM 35.6980 122.8755 192° South  Level Estimated
Sun 11:34:00 AM 35.5897 122.8483 192° South  Level Estimated
Sun 11:35:00 AM 35.4814 122.8213 192° South  Level Estimated
Sun 11:36:00 AM 35.3731 122.7942 191° South  Level Estimated
Sun 11:37:00 AM 35.2648 122.7673 191° South  Level Estimated
Sun 11:38:00 AM 35.1565 122.7404 191° South  Level Estimated
Sun 11:39:00 AM 35.0481 122.7136 191° South  Level Estimated
Sun 11:40:00 AM 34.9398 122.6869 191° South  Level Estimated
Sun 11:41:00 AM 34.8315 122.6603 191° South  Level Estimated
Sun 11:42:00 AM 34.7231 122.6337 191° South  Level Estimated
Sun 11:43:00 AM 34.6148 122.6072 191° South  Level Estimated
Sun 11:44:00 AM 34.5065 122.5807 191° South  Level Estimated
Sun 11:45:00 AM 34.3981 122.5544 191° South  Level Estimated
Sun 11:46:00 AM 34.2897 122.5280 191° South  Level Estimated
Sun 11:47:00 AM 34.1814 122.5018 191° South  Level Estimated
Sun 11:48:00 AM 34.0730 122.4756 191° South  Level Estimated
Sun 11:49:00 AM 33.9646 122.4495 191° South  Level Estimated
Sun 11:50:00 AM 33.8562 122.4235 191° South  Level Estimated
Sun 11:51:00 AM 33.7478 122.3975 191° South  Level Estimated
Sun 11:52:00 AM 33.6395 122.3716 191° South  Level Estimated
Sun 11:53:00 AM 33.5311 122.3458 191° South  Level Estimated
Sun 11:54:00 AM 33.4227 122.3200 191° South  Level Estimated
Sun 11:55:00 AM 33.3143 122.2943 191° South  Level Estimated
Sun 11:56:00 AM 33.2058 122.2686 191° South  Level Estimated
Sun 11:57:00 AM 33.0974 122.2430 191° South  Level Estimated
Sun 11:58:00 AM 32.9890 122.2175 191° South  Level Estimated
Sun 11:59:00 AM 32.8806 122.1920 191° South  Level Estimated
Sun 12:00:00 PM 32.7721 122.1666 191° South  Level Estimated
Sun 12:01:00 PM 32.6637 122.1413 191° South  Level Estimated
Sun 12:02:00 PM 32.5552 122.1160 191° South  Level Estimated
Sun 12:03:00 PM 32.4468 122.0908 191° South  Level Estimated

Login

Don't have an account? Register now (free) for customized features, flight alerts, and more!